Time;durP1;ratioP1;P1;durP2;ratioP2;P2;SDS_P1;SDS_P2;PMS_P1;PMS_P2;Temp;Humidity;BMP_temperature;BMP_pressure;BME280_temperature;BME280_humidity;BME280_pressure;Samples;Min_cycle;Max_cycle;Signal;HPM_P1;HPM_P2
2021/03/13 00:01:49;;;;;;;14.75;9.58;;;;;;;-2.80;100.00;101246.58;1815112;79;21190;-85
2021/03/13 00:08:41;;;;;;;15.08;9.13;;;;;;;-2.79;100.00;101232.98;1815077;79;21025;-85
2021/03/13 00:15:33;;;;;;;15.78;9.90;;;;;;;-2.79;100.00;101227.44;1815121;79;21150;-83
2021/03/13 00:22:24;;;;;;;18.65;9.88;;;;;;;-2.77;100.00;101210.87;1814994;79;21103;-84
2021/03/13 00:29:15;;;;;;;17.55;10.08;;;;;;;-2.76;100.00;101184.48;1815046;79;21060;-84
2021/03/13 00:35:51;;;;;;;17.45;10.20;;;;;;;-2.78;100.00;101192.16;1815077;79;21259;-84
2021/03/13 00:42:43;;;;;;;19.30;10.18;;;;;;;-2.83;100.00;101188.83;1815038;79;21555;-83
2021/03/13 00:49:35;;;;;;;16.52;9.93;;;;;;;-2.88;100.00;101177.81;1815091;79;21119;-83
2021/03/13 00:56:19;;;;;;;24.05;9.90;;;;;;;-2.96;100.00;101183.00;1815175;78;21111;-84
2021/03/13 01:02:38;;;;;;;17.37;9.93;;;;;;;-3.00;100.00;101174.95;1808855;78;21578;-83
2021/03/13 01:05:31;;;;;;;17.10;10.20;;;;;;;-3.04;100.00;101170.77;1815103;79;21099;-85
2021/03/13 01:12:23;;;;;;;18.07;11.08;;;;;;;-3.07;100.00;101164.41;1815026;79;21784;-84
2021/03/13 01:19:15;;;;;;;15.72;9.68;;;;;;;-3.07;100.00;101167.82;1815024;79;21131;-84
2021/03/13 01:26:09;;;;;;;15.85;9.53;;;;;;;-3.07;100.00;101174.19;1815173;79;21036;-84
2021/03/13 01:33:02;;;;;;;17.60;11.43;;;;;;;-3.04;100.00;101170.77;1815082;79;21460;-83
2021/03/13 01:39:34;;;;;;;18.95;11.53;;;;;;;-3.01;100.00;101183.48;1815053;79;21111;-84
2021/03/13 01:46:26;;;;;;;17.00;10.93;;;;;;;-2.98;100.00;101188.53;1814954;79;21112;-85
2021/03/13 01:53:18;;;;;;;17.35;10.65;;;;;;;-2.96;100.00;101194.88;1815049;79;21147;-85
2021/03/13 02:00:14;;;;;;;17.07;11.43;;;;;;;-2.95;100.00;101202.95;1815033;79;21155;-85
2021/03/13 02:07:12;;;;;;;25.00;11.55;;;;;;;-2.97;100.00;101204.25;1815031;79;21136;-84
2021/03/13 02:22:52;;;;;;;21.12;13.45;;;;;;;-3.03;100.00;101207.69;1813344;79;21135;-85
2021/03/13 02:38:34;;;;;;;19.30;13.68;;;;;;;-3.15;100.00;101220.97;1815221;79;21127;-86
2021/03/13 02:45:30;;;;;;;24.20;14.13;;;;;;;-3.16;100.00;101221.41;1815112;79;21143;-85
2021/03/13 02:52:24;;;;;;;23.75;14.93;;;;;;;-3.18;100.00;101222.70;1815018;79;21167;-86
2021/03/13 02:59:18;;;;;;;21.82;13.80;;;;;;;-3.18;100.00;101214.20;1814935;79;21100;-85
2021/03/13 03:05:39;;;;;;;23.57;15.05;;;;;;;-3.23;100.00;101208.30;1810054;79;21563;-86
2021/03/13 03:08:41;;;;;;;26.15;17.40;;;;;;;-3.24;100.00;101209.16;1815078;79;21103;-86
2021/03/13 03:15:34;;;;;;;23.55;15.30;;;;;;;-3.26;100.00;101217.23;1815008;79;21594;-84
2021/03/13 03:22:28;;;;;;;23.45;16.12;;;;;;;-3.25;100.00;101212.15;1814932;79;21163;-85
2021/03/13 03:29:22;;;;;;;24.90;16.48;;;;;;;-3.26;100.00;101223.19;1786034;79;21130;-85
2021/03/13 03:36:14;;;;;;;25.72;16.23;;;;;;;-3.24;100.00;101219.34;1782930;80;20994;-85
2021/03/13 03:43:28;;;;;;;23.55;16.60;;;;;;;-3.25;100.00;101224.89;1782953;80;21139;-85
2021/03/13 03:58:58;;;;;;;25.05;15.25;;;;;;;-3.34;100.00;101230.88;1782497;80;21559;-85
2021/03/13 04:05:50;;;;;;;22.48;15.60;;;;;;;-3.37;100.00;101216.91;1798944;78;21249;-85
2021/03/13 04:09:04;;;;;;;27.40;17.20;;;;;;;-3.38;100.00;101239.41;1772151;80;21060;-85
2021/03/13 04:15:56;;;;;;;28.00;15.45;;;;;;;-3.39;100.00;101235.58;1796005;78;21548;-85
2021/03/13 04:22:50;;;;;;;23.25;13.62;;;;;;;-3.44;100.00;101232.23;1814982;79;21122;-85
2021/03/13 04:29:42;;;;;;;24.77;15.95;;;;;;;-3.47;100.00;101227.15;1814970;79;21543;-85
2021/03/13 04:36:33;;;;;;;24.80;15.40;;;;;;;-3.50;100.00;101205.97;1815144;79;21151;-85
2021/03/13 04:43:30;;;;;;;26.33;16.12;;;;;;;-3.50;100.00;101209.79;1809020;79;21139;-86
2021/03/13 04:50:23;;;;;;;23.57;15.68;;;;;;;-3.40;100.00;101205.88;1786323;79;21036;-86
2021/03/13 04:57:06;;;;;;;24.75;14.65;;;;;;;-3.28;100.00;101206.20;1782735;80;21095;-88
2021/03/13 05:03:58;;;;;;;24.98;15.28;;;;;;;-3.19;100.00;101205.72;1799982;78;21111;-87
2021/03/13 05:10:31;;;;;;;25.10;15.68;;;;;;;-3.13;100.00;101211.20;1815001;79;21143;-87
2021/03/13 05:17:23;;;;;;;22.87;14.53;;;;;;;-3.13;100.00;101209.06;1784755;79;21180;-88
2021/03/13 05:19:51;;;;;;;26.30;15.60;;;;;;;-3.14;100.00;101216.29;1787660;78;21164;-89
2021/03/13 05:22:20;;;;;;;26.12;17.12;;;;;;;-3.15;100.00;101212.05;1796671;79;21592;-89
2021/03/13 05:24:50;;;;;;;20.97;15.03;;;;;;;-3.15;100.00;101208.23;1787714;78;21164;-89
2021/03/13 05:27:18;;;;;;;26.42;16.77;;;;;;;-3.14;100.00;101206.96;1790733;79;21603;-89
2021/03/13 05:29:48;;;;;;;26.68;16.17;;;;;;;-3.11;100.00;101200.98;1781764;79;21123;-89
2021/03/13 05:32:16;;;;;;;33.58;16.73;;;;;;;-3.11;100.00;101204.81;1782349;79;21116;-89
2021/03/13 05:34:44;;;;;;;24.27;15.20;;;;;;;-3.05;100.00;101206.88;1789202;79;21115;-89
2021/03/13 05:37:12;;;;;;;29.37;17.40;;;;;;;-3.02;100.00;101214.92;1786291;79;21127;-89
2021/03/13 05:39:40;;;;;;;28.45;16.82;;;;;;;-3.00;100.00;101217.01;1790688;79;21152;-89
2021/03/13 05:42:10;;;;;;;22.93;15.65;;;;;;;-2.98;100.00;101215.30;1782166;80;21165;-89
2021/03/13 05:44:38;;;;;;;25.45;16.75;;;;;;;-2.96;100.00;101229.29;1782260;80;21215;-89
2021/03/13 05:47:07;;;;;;;23.42;16.48;;;;;;;-2.94;100.00;101236.50;1782429;80;21144;-91
2021/03/13 05:49:39;;;;;;;27.42;16.85;;;;;;;-2.89;100.00;101233.50;1782155;80;21192;-89
2021/03/13 05:52:08;;;;;;;24.45;16.80;;;;;;;-2.83;100.00;101243.63;1805913;79;21368;-90
2021/03/13 05:54:36;;;;;;;24.67;16.97;;;;;;;-2.79;100.00;101246.55;1814562;79;21139;-90
2021/03/13 05:57:09;;;;;;;26.05;16.97;;;;;;;-2.76;100.00;101237.61;1792141;78;21146;-89
2021/03/13 05:59:38;;;;;;;26.17;17.82;;;;;;;-2.73;100.00;101245.66;1749198;80;21115;-89
2021/03/13 06:02:09;;;;;;;42.25;18.57;;;;;;;-2.71;100.00;101241.39;1767149;80;21575;-88
2021/03/13 06:04:38;;;;;;;27.42;16.62;;;;;;;-2.73;100.00;101236.32;1757812;81;21561;-90
2021/03/13 06:07:11;;;;;;;27.02;17.25;;;;;;;-2.75;100.00;101237.17;1742237;81;21160;-90
2021/03/13 06:09:40;;;;;;;27.82;18.95;;;;;;;-2.82;100.00;101228.76;1737770;81;21183;-89
2021/03/13 06:12:09;;;;;;;27.77;17.95;;;;;;;-2.86;100.00;101232.17;1742044;81;21513;-89
2021/03/13 06:14:37;;;;;;;28.98;18.25;;;;;;;-2.88;100.00;101232.20;1739271;81;21590;-89
2021/03/13 06:17:06;;;;;;;28.00;17.70;;;;;;;-2.88;100.00;101234.75;1746688;81;22231;-89
2021/03/13 06:19:57;;;;;;;31.50;18.48;;;;;;;-2.87;100.00;101238.13;1757983;80;21155;-89
2021/03/13 06:22:43;;;;;;;30.32;18.02;;;;;;;-2.87;100.00;101241.55;1754541;80;21574;-89
2021/03/13 06:25:18;;;;;;;30.23;18.20;;;;;;;-2.83;100.00;101250.41;1677106;84;21136;-90
2021/03/13 06:28:19;;;;;;;27.85;17.65;;;;;;;-2.82;100.00;101246.60;1751041;80;21167;-89
2021/03/13 06:30:50;;;;;;;28.35;17.52;;;;;;;-2.79;100.00;101254.20;1742966;82;21347;-90
2021/03/13 06:33:22;;;;;;;26.12;17.42;;;;;;;-2.74;100.00;101258.84;1742801;82;21588;-90
2021/03/13 06:35:55;;;;;;;29.32;18.82;;;;;;;-2.71;100.00;101269.44;1743181;80;21552;-89
2021/03/13 06:38:25;;;;;;;35.80;19.85;;;;;;;-2.69;100.00;101275.38;1742424;81;21829;-89
2021/03/13 06:40:57;;;;;;;26.62;17.05;;;;;;;-2.67;100.00;101281.28;1724212;83;21176;-90
2021/03/13 06:43:31;;;;;;;32.53;19.32;;;;;;;-2.64;100.00;101281.71;1701847;84;21140;-90
2021/03/13 06:46:19;;;;;;;28.17;18.70;;;;;;;-2.61;100.00;101279.11;1734567;82;21618;-90
2021/03/13 06:48:55;;;;;;;29.77;18.17;;;;;;;-2.60;100.00;101279.09;1731672;82;21595;-90
2021/03/13 06:54:18;;;;;;;29.23;18.32;;;;;;;-2.50;100.00;101277.73;1889118;76;22435;-88
2021/03/13 06:56:59;;;;;;;26.82;17.55;;;;;;;-2.51;100.00;101281.14;1859869;77;21525;-89
2021/03/13 06:59:39;;;;;;;25.75;17.23;;;;;;;-2.50;100.00;101279.00;1860134;77;21358;-89
2021/03/13 07:02:11;;;;;;;30.65;19.82;;;;;;;-2.48;100.00;101274.30;1859881;77;21124;-90
2021/03/13 07:04:42;;;;;;;29.32;18.75;;;;;;;-2.45;100.00;101282.38;1859998;77;21116;-90
2021/03/13 07:07:28;;;;;;;;;;;;;;;-2.41;100.00;101278.50;1862757;77;21484;-89
2021/03/13 07:09:58;;;;;;;28.55;17.95;;;;;;;-2.38;100.00;101275.90;1858493;77;20253;-89
2021/03/13 07:12:40;;;;;;;30.88;17.77;;;;;;;-2.35;100.00;101270.36;1859857;77;21404;-89
2021/03/13 07:15:20;;;;;;;31.50;18.53;;;;;;;-2.35;100.00;101266.09;1859824;77;21116;-90
2021/03/13 07:17:59;;;;;;;28.77;17.90;;;;;;;-2.34;100.00;101270.77;1851726;76;21532;-90
2021/03/13 07:20:31;;;;;;;33.10;19.95;;;;;;;-2.29;100.00;101273.70;1847389;77;21235;-88
2021/03/13 07:23:03;;;;;;;34.65;19.48;;;;;;;-2.25;100.00;101268.95;1851431;77;21599;-89
2021/03/13 07:25:32;;;;;;;30.88;19.67;;;;;;;-2.22;100.00;101271.90;1852410;76;21186;-89
2021/03/13 07:28:03;;;;;;;33.92;17.82;;;;;;;-2.17;100.00;101263.78;1761779;80;21119;-89
2021/03/13 07:30:33;;;;;;;;;;;;;;;-2.12;100.00;101270.08;1809199;78;21111;-89
2021/03/13 07:33:10;;;;;;;32.33;19.25;;;;;;;-2.09;100.00;101264.95;1818815;78;20210;-89
2021/03/13 07:35:47;;;;;;;36.65;20.45;;;;;;;-2.06;100.00;101257.27;1806099;78;21556;-89
2021/03/13 07:38:17;;;;;;;33.40;21.42;;;;;;;-2.02;100.00;101264.45;1818209;78;21375;-89
2021/03/13 07:40:48;;;;;;;33.18;19.30;;;;;;;-2.00;100.00;101264.84;1807179;78;21182;-89
2021/03/13 07:43:18;;;;;;;;;;;;;;;-1.98;100.00;101265.67;1824164;77;21140;-89
2021/03/13 07:45:48;;;;;;;31.05;19.07;;;;;;;-1.95;100.00;101259.68;1809567;78;20526;-89
2021/03/13 07:48:16;;;;;;;32.37;19.13;;;;;;;-1.92;100.00;101255.80;1816189;78;21151;-89
2021/03/13 07:50:49;;;;;;;32.65;21.12;;;;;;;-1.88;100.00;101262.56;1820782;77;21201;-89
2021/03/13 07:53:17;;;;;;;35.80;21.20;;;;;;;-1.83;100.00;101261.23;1769038;80;21147;-89
2021/03/13 07:55:54;;;;;;;35.40;20.95;;;;;;;-1.78;100.00;101263.28;1777897;80;21115;-90
2021/03/13 07:58:23;;;;;;;34.65;20.48;;;;;;;-1.72;100.00;101265.74;1757050;79;21607;-89
2021/03/13 08:00:52;;;;;;;38.65;22.98;;;;;;;-1.71;100.00;101271.27;1795645;79;21241;-89
2021/03/13 08:03:37;;;;;;;33.20;20.55;;;;;;;-1.68;100.00;101269.12;1788976;79;21166;-89
2021/03/13 08:06:09;;;;;;;33.78;20.25;;;;;;;-1.64;100.00;101261.38;1774006;80;21218;-90
2021/03/13 08:08:46;;;;;;;32.93;21.73;;;;;;;-1.61;100.00;101263.90;1777458;80;21625;-90
2021/03/13 08:11:17;;;;;;;37.83;21.35;;;;;;;-1.56;100.00;101266.39;1795097;79;21113;-90
2021/03/13 08:13:56;;;;;;;33.78;22.20;;;;;;;-1.49;100.00;101264.60;1787627;79;21182;-90
2021/03/13 08:16:37;;;;;;;34.50;22.15;;;;;;;-1.45;100.00;101269.65;1795377;79;21206;-89
2021/03/13 08:19:28;;;;;;;43.17;23.83;;;;;;;-1.40;100.00;101266.17;1777733;80;21123;-90
2021/03/13 08:22:17;;;;;;;40.12;24.12;;;;;;;-1.32;100.00;101269.45;1759003;80;21686;-90
2021/03/13 08:24:54;;;;;;;43.05;24.82;;;;;;;-1.28;100.00;101264.69;1780750;80;21213;-89
2021/03/13 08:27:39;;;;;;;40.25;23.47;;;;;;;-1.24;100.00;101266.34;1770578;80;21561;-90
2021/03/13 08:30:17;;;;;;;48.85;25.70;;;;;;;-1.19;100.00;101258.61;1791411;79;22363;-89
2021/03/13 08:33:00;;;;;;;41.37;24.63;;;;;;;-1.15;100.00;101256.40;1793747;79;21163;-89
2021/03/13 08:35:38;;;;;;;47.78;26.70;;;;;;;-1.13;100.00;101261.92;1788764;79;21598;-89
2021/03/13 08:42:32;;;;;;;36.63;23.00;;;;;;;-1.06;100.00;101253.70;1795334;79;21618;-84
2021/03/13 08:49:37;;;;;;;49.05;27.58;;;;;;;-0.94;100.00;101255.66;1767787;80;21190;-88
2021/03/13 08:52:10;;;;;;;41.90;25.20;;;;;;;-0.88;100.00;101256.83;1792608;79;21469;-88
2021/03/13 08:54:48;;;;;;;49.58;29.05;;;;;;;-0.84;100.00;101257.20;1786560;79;21139;-88
2021/03/13 08:57:31;;;;;;;52.85;28.47;;;;;;;-0.81;100.00;101252.01;1784871;79;21171;-88
2021/03/13 09:00:01;;;;;;;44.75;26.97;;;;;;;-0.77;100.00;101258.77;1762192;81;22254;-88
2021/03/13 09:02:37;;;;;;;42.60;27.65;;;;;;;-0.73;100.00;101250.16;1784903;80;21227;-89
2021/03/13 09:05:14;;;;;;;47.62;27.65;;;;;;;-0.68;100.00;101256.03;1762092;80;21080;-88
2021/03/13 09:07:55;;;;;;;46.02;28.77;;;;;;;-0.62;100.00;101255.08;1784730;80;21619;-88
2021/03/13 09:10:24;;;;;;;45.17;28.47;;;;;;;-0.55;100.00;101254.54;1762211;80;21056;-88
2021/03/13 09:12:53;;;;;;;51.13;28.73;;;;;;;-0.47;100.00;101252.68;1784692;78;21553;-88
2021/03/13 09:15:22;;;;;;;51.85;31.25;;;;;;;-0.41;100.00;101251.28;1794362;79;21550;-87
2021/03/13 09:17:50;;;;;;;59.27;30.97;;;;;;;-0.34;100.00;101239.22;1778898;79;21118;-86
2021/03/13 09:20:19;;;;;;;51.33;30.80;;;;;;;-0.27;100.00;101242.48;1792473;79;21121;-87
2021/03/13 09:22:49;;;;;;;46.80;29.15;;;;;;;-0.19;100.00;101244.45;1801951;79;21586;-87
2021/03/13 09:25:21;;;;;;;52.75;31.57;;;;;;;-0.11;100.00;101241.75;1801698;78;21370;-87
2021/03/13 09:27:52;;;;;;;48.23;29.85;;;;;;;-0.04;100.00;101242.85;1790324;79;21569;-87
2021/03/13 09:30:23;;;;;;;48.60;29.07;;;;;;;0.07;100.00;101245.64;1785979;79;21161;-86
2021/03/13 09:32:52;;;;;;;;;;;;;;;0.13;100.00;101246.78;1787499;78;21168;-86
2021/03/13 09:35:26;;;;;;;54.60;29.87;;;;;;;0.20;100.00;101235.97;1784291;79;20251;-87
2021/03/13 09:37:55;;;;;;;52.20;30.30;;;;;;;0.21;100.00;101235.93;1770329;79;22122;-87
2021/03/13 09:40:26;;;;;;;43.23;26.75;;;;;;;0.21;100.00;101237.21;1770258;80;21218;-87
2021/03/13 09:42:55;;;;;;;54.58;31.27;;;;;;;0.23;100.00;101238.48;1770268;80;21548;-87
2021/03/13 09:45:25;;;;;;;51.55;29.65;;;;;;;0.24;100.00;101238.44;1770281;81;21190;-87
2021/03/13 09:48:06;;;;;;;54.83;31.23;;;;;;;0.27;100.00;101242.22;1770353;80;21305;-87
2021/03/13 09:50:38;;;;;;;55.85;31.90;;;;;;;0.28;100.00;101242.60;1770481;79;21272;-87
2021/03/13 09:53:08;;;;;;;50.92;30.60;;;;;;;0.31;100.00;101241.27;1768910;81;21190;-87
2021/03/13 09:55:38;;;;;;;58.10;33.65;;;;;;;0.33;100.00;101237.83;1763802;80;21631;-87
2021/03/13 09:58:05;;;;;;;55.92;33.55;;;;;;;0.32;100.00;101234.44;1764245;81;21883;-87
2021/03/13 10:00:41;;;;;;;59.13;31.75;;;;;;;0.34;100.00;101237.78;1781893;79;21148;-87
2021/03/13 10:03:15;;;;;;;51.60;30.35;;;;;;;0.36;100.00;101231.37;1778842;80;21370;-87
2021/03/13 10:05:54;;;;;;;60.12;31.62;;;;;;;0.41;100.00;101225.69;1778536;80;21671;-86
2021/03/13 10:08:34;;;;;;;59.18;35.15;;;;;;;0.50;100.00;101229.33;1754705;80;21155;-87
2021/03/13 10:11:04;;;;;;;53.98;30.23;;;;;;;0.54;100.00;101225.80;1778705;79;21191;-88
2021/03/13 10:13:33;;;;;;;75.28;32.50;;;;;;;0.59;100.00;101225.27;1785401;79;21149;-88
2021/03/13 10:16:02;;;;;;;52.03;30.45;;;;;;;0.69;100.00;101228.87;1782008;78;21477;-88
2021/03/13 10:18:37;;;;;;;58.48;34.48;;;;;;;0.81;100.00;101225.16;1783109;79;28298;-87
2021/03/13 10:21:07;;;;;;;62.20;33.90;;;;;;;0.87;100.00;101207.91;1792365;79;21106;-87
2021/03/13 10:23:38;;;;;;;55.52;32.13;;;;;;;0.85;100.00;101212.23;1786954;79;21193;-87
2021/03/13 10:26:12;;;;;;;57.20;32.88;;;;;;;0.81;100.00;101216.19;1764525;80;21538;-87
2021/03/13 10:28:47;;;;;;;56.35;32.65;;;;;;;0.77;100.00;101211.16;1778810;79;21498;-88
2021/03/13 10:31:28;;;;;;;63.17;35.65;;;;;;;0.74;100.00;101207.83;1786050;79;21217;-87
2021/03/13 10:33:58;;;;;;;58.92;34.23;;;;;;;0.74;100.00;101206.55;1771863;79;21145;-86
2021/03/13 10:36:46;;;;;;;60.60;34.35;;;;;;;0.71;100.00;101206.61;1764445;81;21636;-86
2021/03/13 10:39:14;;;;;;;60.50;33.18;;;;;;;0.70;100.00;101204.92;1764525;81;21189;-86
2021/03/13 10:42:00;;;;;;;62.23;36.08;;;;;;;0.70;100.00;101203.64;1764274;80;21267;-86
2021/03/13 10:44:29;;;;;;;60.95;34.83;;;;;;;0.73;100.00;101204.86;1764330;81;21212;-87
2021/03/13 10:46:59;;;;;;;63.15;34.95;;;;;;;0.72;100.00;101205.28;1774231;78;21630;-87
2021/03/13 10:49:27;;;;;;;63.38;34.18;;;;;;;0.71;100.00;101202.77;1791726;79;21756;-87
2021/03/13 10:51:55;;;;;;;55.85;31.75;;;;;;;0.72;100.00;101196.77;1796073;79;21053;-87
2021/03/13 10:54:28;;;;;;;51.92;30.12;;;;;;;0.75;100.00;101194.14;1793223;78;21284;-87
2021/03/13 10:56:59;;;;;;;57.95;34.60;;;;;;;0.77;100.00;101193.21;1790228;79;21576;-87
2021/03/13 10:59:33;;;;;;;59.73;33.42;;;;;;;0.80;100.00;101197.41;1781263;79;21199;-86
2021/03/13 11:02:02;;;;;;;63.65;35.92;;;;;;;0.82;100.00;101191.81;1796619;79;21139;-87
2021/03/13 11:04:30;;;;;;;58.30;33.88;;;;;;;0.85;100.00;101192.17;1796732;79;21194;-87
2021/03/13 11:06:59;;;;;;;61.33;33.75;;;;;;;0.90;100.00;101189.90;1791587;79;22595;-86
2021/03/13 11:09:29;;;;;;;57.70;33.08;;;;;;;0.95;100.00;101189.78;1795247;79;21546;-86
2021/03/13 11:11:58;;;;;;;59.90;32.95;;;;;;;1.02;100.00;101186.60;1806157;79;21152;-86
2021/03/13 11:14:26;;;;;;;53.55;33.88;;;;;;;1.06;100.00;101189.05;1794106;79;21583;-87
2021/03/13 11:16:54;;;;;;;62.00;34.67;;;;;;;1.13;100.00;101176.05;1793327;79;21179;-86
2021/03/13 11:19:25;;;;;;;55.28;32.45;;;;;;;1.15;100.00;101173.88;1794967;79;21190;-87
2021/03/13 11:21:54;;;;;;;59.03;32.38;;;;;;;1.23;100.00;101173.22;1795374;79;21166;-87
2021/03/13 11:24:23;;;;;;;52.78;31.68;;;;;;;1.31;100.00;101165.75;1799593;79;21118;-87
2021/03/13 11:26:52;;;;;;;52.75;31.70;;;;;;;1.39;100.00;101168.50;1799508;79;21159;-87
2021/03/13 11:29:20;;;;;;;51.73;31.80;;;;;;;1.52;100.00;101163.86;1799643;79;21118;-87
2021/03/13 11:31:49;;;;;;;43.70;28.98;;;;;;;1.65;100.00;101163.07;1799452;79;21372;-87
2021/03/13 11:34:17;;;;;;;51.88;31.97;;;;;;;1.79;100.00;101156.25;1770815;79;21644;-87
2021/03/13 11:36:47;;;;;;;56.63;34.08;;;;;;;1.91;100.00;101163.17;1799547;79;21170;-87
2021/03/13 11:39:14;;;;;;;53.85;33.08;;;;;;;2.02;100.00;101157.28;1785972;79;21125;-89
2021/03/13 11:41:45;;;;;;;52.23;32.08;;;;;;;2.10;100.00;101163.02;1778272;78;21094;-90
2021/03/13 11:44:13;;;;;;;53.65;32.85;;;;;;;2.17;100.00;101159.37;1777056;79;21372;-88
2021/03/13 11:46:41;;;;;;;55.65;33.48;;;;;;;2.23;100.00;101156.20;1770083;81;21208;-87
2021/03/13 11:49:10;;;;;;;50.50;31.93;;;;;;;2.28;100.00;101147.47;1793757;79;21082;-87
2021/03/13 11:51:38;;;;;;;57.45;36.68;;;;;;;2.36;100.00;101148.52;1801780;79;21216;-87
2021/03/13 11:54:05;;;;;;;56.68;33.95;;;;;;;2.45;100.00;101149.48;1801347;79;21130;-87
2021/03/13 11:56:34;;;;;;;58.05;32.42;;;;;;;2.52;100.00;101148.84;1800452;79;21194;-87
2021/03/13 11:59:03;;;;;;;58.00;34.55;;;;;;;2.56;100.00;101144.44;1809889;79;21550;-88
2021/03/13 12:01:31;;;;;;;51.92;33.25;;;;;;;2.62;100.00;101149.37;1759890;79;21093;-86
2021/03/13 12:03:59;;;;;;;46.77;29.82;;;;;;;2.66;100.00;101147.94;1802582;78;21236;-88
2021/03/13 12:06:27;;;;;;;48.42;30.23;;;;;;;2.69;100.00;101155.98;1816888;78;21543;-89
2021/03/13 12:09:00;;;;;;;49.30;30.57;;;;;;;2.68;100.00;101155.16;1815750;79;21184;-89
2021/03/13 12:14:54;;;;;;;44.77;29.10;;;;;;;2.64;100.00;101155.31;1801413;79;21147;-88
2021/03/13 12:21:46;;;;;;;46.13;29.45;;;;;;;2.49;100.00;101160.08;1768996;81;21453;-89
2021/03/13 12:28:38;;;;;;;44.53;28.45;;;;;;;2.40;100.00;101164.68;1776065;80;21206;-90
2021/03/13 12:31:41;;;;;;;46.68;27.87;;;;;;;2.41;100.00;101174.91;1781036;80;21842;-90
2021/03/13 12:34:38;;;;;;;62.17;28.52;;;;;;;2.44;100.00;101175.25;1811557;79;21159;-90
2021/03/13 12:41:29;;;;;;;54.50;27.87;;;;;;;2.56;100.00;101177.44;1792995;79;21887;-90
2021/03/13 12:48:22;;;;;;;41.77;25.15;;;;;;;2.66;100.00;101178.80;1760652;81;21127;-89
2021/03/13 12:54:54;;;;;;;43.45;25.95;;;;;;;2.70;100.00;101180.81;1768855;79;21120;-88
2021/03/13 13:04:47;;;;;;;44.08;25.55;;;;;;;2.73;100.00;101184.59;1814715;79;21191;-89
2021/03/13 13:07:15;;;;;;;43.13;26.25;;;;;;;2.76;100.00;101187.06;1806690;78;21156;-89
2021/03/13 13:09:44;;;;;;;44.60;27.73;;;;;;;2.80;100.00;101187.80;1778426;79;21161;-89
2021/03/13 13:12:13;;;;;;;46.08;27.55;;;;;;;2.81;100.00;101181.74;1825275;78;22281;-89
2021/03/13 13:14:44;;;;;;;47.33;26.12;;;;;;;2.81;100.00;101178.74;1825241;78;21184;-89
2021/03/13 13:17:13;;;;;;;42.25;24.72;;;;;;;2.82;100.00;101176.56;1809386;77;21234;-89
2021/03/13 13:19:41;;;;;;;46.75;26.80;;;;;;;2.84;100.00;101174.77;1807846;78;21160;-89
2021/03/13 13:22:09;;;;;;;46.85;27.55;;;;;;;2.85;100.00;101169.19;1814263;77;21195;-89
2021/03/13 13:24:37;;;;;;;44.40;27.35;;;;;;;2.86;100.00;101171.30;1810657;78;21285;-90
2021/03/13 13:27:06;;;;;;;44.25;26.65;;;;;;;2.86;100.00;101171.30;1792717;79;21187;-90
2021/03/13 13:29:34;;;;;;;58.02;27.87;;;;;;;2.84;100.00;101168.33;1801934;77;21536;-90
2021/03/13 13:32:02;;;;;;;53.05;29.92;;;;;;;2.80;100.00;101164.20;1833289;77;21040;-89
2021/03/13 13:34:31;;;;;;;59.77;28.45;;;;;;;2.80;100.00;101161.63;1765713;81;21191;-90
2021/03/13 13:36:58;;;;;;;43.73;26.57;;;;;;;2.77;100.00;101159.60;1797040;79;21135;-90
2021/03/13 13:39:27;;;;;;;49.48;28.27;;;;;;;2.72;100.00;101159.75;1779348;79;21146;-91
2021/03/13 13:41:57;;;;;;;43.40;27.40;;;;;;;2.71;100.00;101149.06;1789525;79;21187;-90
2021/03/13 13:44:26;;;;;;;44.75;27.60;;;;;;;2.72;100.00;101150.75;1789570;80;21549;-90
2021/03/13 13:46:54;;;;;;;45.45;30.05;;;;;;;2.71;100.00;101149.06;1829228;77;21607;-90
2021/03/13 13:49:23;;;;;;;47.23;28.62;;;;;;;2.68;100.00;101148.73;1836182;77;21194;-90
2021/03/13 13:51:51;;;;;;;63.15;27.87;;;;;;;2.67;100.00;101152.19;1846592;77;22034;-90
2021/03/13 13:54:20;;;;;;;48.33;29.15;;;;;;;2.66;100.00;101150.51;1765901;80;21578;-90
2021/03/13 13:56:47;;;;;;;45.80;28.25;;;;;;;2.73;100.00;101153.72;1836995;77;21175;-90
2021/03/13 13:59:16;;;;;;;44.70;26.70;;;;;;;2.77;100.00;101160.43;1787804;80;21183;-90
2021/03/13 14:01:44;;;;;;;42.03;29.25;;;;;;;2.83;100.00;101155.10;1824180;77;21355;-88
2021/03/13 14:04:12;;;;;;;38.83;25.45;;;;;;;2.95;100.00;101160.70;1798540;77;21133;-88
2021/03/13 14:06:41;;;;;;;40.52;26.77;;;;;;;2.98;100.00;101155.46;1787595;80;21493;-89
2021/03/13 14:09:11;;;;;;;41.83;25.65;;;;;;;3.00;100.00;101153.22;1788770;78;21564;-89
2021/03/13 14:11:41;;;;;;;40.35;24.47;;;;;;;3.01;100.00;101137.33;1787583;80;21187;-90
2021/03/13 14:14:09;;;;;;;64.50;28.05;;;;;;;3.02;100.00;101135.14;1789537;78;21560;-89
2021/03/13 14:16:37;;;;;;;83.70;26.97;;;;;;;3.07;100.00;101142.28;1792448;78;21173;-90
2021/03/13 14:19:05;;;;;;;73.15;32.67;;;;;;;3.11;100.00;101137.40;1818661;77;21196;-88
2021/03/13 14:21:35;;;;;;;47.78;29.45;;;;;;;3.19;100.00;101144.00;1795047;77;21199;-90
2021/03/13 14:24:04;;;;;;;44.85;28.38;;;;;;;3.26;100.00;101137.31;1798471;78;21156;-90
2021/03/13 14:26:59;;;;;;;43.63;27.05;;;;;;;3.31;100.00;101139.72;1799228;78;22129;-93
2021/03/13 14:33:52;;;;;;;87.45;27.60;;;;;;;3.33;100.00;101133.22;1796622;78;21541;-91
2021/03/13 14:40:43;;;;;;;46.90;29.67;;;;;;;3.31;100.00;101132.83;1810516;78;21565;-85
2021/03/13 14:47:35;;;;;;;57.20;29.77;;;;;;;3.39;100.00;101138.14;1820642;78;21160;-85
2021/03/13 14:50:33;;;;;;;47.60;28.17;;;;;;;3.41;100.00;101130.74;1820698;78;21114;-85
2021/03/13 14:53:01;;;;;;;63.63;27.73;;;;;;;3.44;100.00;101134.50;1789950;78;21164;-90
2021/03/13 14:55:30;;;;;;;99.52;29.07;;;;;;;3.43;100.00;101129.42;1795475;78;21111;-90
2021/03/13 14:57:59;;;;;;;63.25;26.57;;;;;;;3.43;100.00;101131.53;1784285;80;21382;-90
2021/03/13 15:00:27;;;;;;;73.97;27.67;;;;;;;3.42;100.00;101133.71;1784146;80;21238;-90
2021/03/13 15:02:56;;;;;;;56.58;28.45;;;;;;;3.46;100.00;101131.86;1802367;77;21130;-91
2021/03/13 15:05:26;;;;;;;45.60;29.92;;;;;;;3.52;100.00;101129.52;1804725;79;21155;-89
2021/03/13 15:07:53;;;;;;;54.90;30.00;;;;;;;3.54;100.00;101133.70;1795166;79;21151;-92
2021/03/13 15:10:23;;;;;;;51.73;29.90;;;;;;;3.55;100.00;101133.28;1816198;78;21477;-90
2021/03/13 15:12:51;;;;;;;43.35;27.62;;;;;;;3.56;100.00;101133.20;1805289;78;21148;-89
2021/03/13 15:15:20;;;;;;;56.88;23.75;;;;;;;3.56;100.00;101135.78;1816899;79;21613;-89
2021/03/13 15:17:48;;;;;;;55.90;26.42;;;;;;;3.50;100.00;101132.16;1806057;78;21176;-89
2021/03/13 15:20:20;;;;;;;84.25;29.48;;;;;;;3.44;100.00;101129.81;1765265;81;21202;-90
2021/03/13 15:22:48;;;;;;;54.67;25.40;;;;;;;3.38;100.00;101133.45;1787793;79;21191;-89
2021/03/13 15:25:18;;;;;;;49.38;26.65;;;;;;;3.38;100.00;101136.45;1803074;78;21639;-89
2021/03/13 15:27:47;;;;;;;67.27;26.00;;;;;;;3.34;100.00;101131.86;1817124;78;21152;-89
2021/03/13 15:34:40;;;;;;;47.48;22.17;;;;;;;3.39;100.00;101138.99;1816941;78;21133;-87
2021/03/13 15:37:36;;;;;;;43.75;24.77;;;;;;;3.37;100.00;101129.19;1816960;79;21204;-87
2021/03/13 15:40:09;;;;;;;40.03;25.17;;;;;;;3.39;100.00;101135.13;1803895;78;21161;-89
2021/03/13 15:42:38;;;;;;;40.03;25.05;;;;;;;3.39;100.00;101133.84;1786820;79;21789;-89
2021/03/13 15:45:09;;;;;;;39.75;24.32;;;;;;;3.41;100.00;101135.89;1812558;78;21552;-89
2021/03/13 15:47:41;;;;;;;;;;;;;;;3.35;100.00;101132.27;1764521;79;21101;-89
2021/03/13 15:50:15;;;;;;;33.23;21.60;;;;;;;3.24;100.00;101135.69;1812240;78;21192;-89
2021/03/13 15:52:44;;;;;;;36.13;22.50;;;;;;;3.06;100.00;101138.02;1802312;79;21127;-89
2021/03/13 15:55:15;;;;;;;30.62;22.30;;;;;;;2.90;100.00;101134.30;1783744;80;21544;-89